Advance Mills, Virginia
Current Conditions -  °F | °C
As of 7:53 AM on Friday 31 Oct 2014 (Local Time) from KCHO Reporting Station
Overcast Overcast  
Wind Chill: 40°   Ceiling: 5000
Heat Index: 40°   Visibility: 10mi
Dew Point: 35°   Wind: 0mph
Humidity: 83%   Direction: NA
Pressure: 29.98"   Gusts: NA
Location:  38.2469°N, 78.3926°W
Report Text: KCHO 311153Z 00000KT 10SM OVC050 04/02 A2998 RMK AO2 SLP154 T00440017 10056 20017 58003
Loading
Personal Weather Stations






























Interactive Weather Map
Tropical Storm Tracking
New forecast layout! Learn more

10-Day Weather Forecast

Advertisements
Track Severe Weather on mobile